createdAt,value
2023-05-27T00:00:11.589Z,448.00
2023-05-27T00:01:11.564Z,455.00
2023-05-27T00:02:11.572Z,446.00
2023-05-27T00:03:11.565Z,445.00
2023-05-27T00:04:11.607Z,445.00
2023-05-27T00:05:11.510Z,452.00
2023-05-27T00:06:11.489Z,467.00
2023-05-27T00:07:11.512Z,450.00
2023-05-27T00:08:11.505Z,444.00
2023-05-27T00:09:11.468Z,439.00
2023-05-27T00:10:11.442Z,435.00
2023-05-27T00:11:11.410Z,432.00
2023-05-27T00:12:11.459Z,434.00
2023-05-27T00:13:11.381Z,436.00
2023-05-27T00:14:11.398Z,438.00
2023-05-27T00:15:11.341Z,436.00
2023-05-27T00:16:11.340Z,428.00
2023-05-27T00:17:11.354Z,437.00
2023-05-27T00:18:11.327Z,442.00
2023-05-27T00:19:11.291Z,452.00
2023-05-27T00:20:11.367Z,440.00
2023-05-27T00:21:11.288Z,445.00
2023-05-27T00:22:11.256Z,444.00
2023-05-27T00:23:11.238Z,499.00
2023-05-27T00:24:11.247Z,432.00
2023-05-27T00:25:11.206Z,462.00
2023-05-27T00:26:11.252Z,400.00
2023-05-27T00:27:11.212Z,434.00
2023-05-27T00:28:11.210Z,441.00
2023-05-27T00:29:11.174Z,441.00
2023-05-27T00:30:11.137Z,439.00
2023-05-27T00:31:11.159Z,432.00
2023-05-27T00:32:11.167Z,430.00
2023-05-27T00:33:11.145Z,433.00
2023-05-27T00:34:11.099Z,436.00
2023-05-27T00:35:11.081Z,434.00
2023-05-27T00:36:11.154Z,440.00
2023-05-27T00:37:11.049Z,436.00
2023-05-27T00:38:11.081Z,437.00
2023-05-27T00:39:11.030Z,438.00
2023-05-27T00:40:11.027Z,435.00
2023-05-27T00:41:10.999Z,442.00
2023-05-27T00:42:10.977Z,436.00
2023-05-27T00:43:11.023Z,437.00
2023-05-27T00:44:10.987Z,439.00
2023-05-27T00:45:10.933Z,439.00
2023-05-27T00:46:10.950Z,439.00
2023-05-27T00:47:10.969Z,439.00
2023-05-27T00:48:10.979Z,440.00
2023-05-27T00:49:10.906Z,440.00
2023-05-27T00:50:10.902Z,437.00
2023-05-27T00:51:10.891Z,435.00
2023-05-27T00:52:10.851Z,435.00
2023-05-27T00:53:10.883Z,433.00
2023-05-27T00:54:10.859Z,433.00
2023-05-27T00:55:10.841Z,432.00
2023-05-27T00:56:10.894Z,434.00
2023-05-27T00:57:10.836Z,434.00
2023-05-27T00:58:10.785Z,435.00
2023-05-27T00:59:10.760Z,436.00
2023-05-27T01:00:10.771Z,439.00
2023-05-27T01:01:10.817Z,440.00
2023-05-27T01:02:10.845Z,441.00
2023-05-27T01:03:10.821Z,440.00
2023-05-27T01:04:10.711Z,436.00
2023-05-27T01:05:10.735Z,437.00
2023-05-27T01:06:10.708Z,437.00
2023-05-27T01:07:10.655Z,444.00
2023-05-27T01:08:10.690Z,441.00
2023-05-27T01:09:10.620Z,441.00
2023-05-27T01:10:10.638Z,444.00
2023-05-27T01:11:10.622Z,442.00
2023-05-27T01:12:10.626Z,440.00
2023-05-27T01:13:10.574Z,439.00
2023-05-27T01:14:10.596Z,437.00
2023-05-27T01:15:10.569Z,436.00
2023-05-27T01:16:10.541Z,437.00
2023-05-27T01:17:10.654Z,435.00
2023-05-27T01:18:10.601Z,435.00
2023-05-27T01:19:10.518Z,437.00
2023-05-27T01:20:10.564Z,437.00
2023-05-27T01:21:10.510Z,435.00
2023-05-27T01:22:10.479Z,432.00
2023-05-27T01:23:10.440Z,433.00
2023-05-27T01:24:10.467Z,435.00
2023-05-27T01:25:10.450Z,438.00
2023-05-27T01:26:10.416Z,441.00
2023-05-27T01:27:10.437Z,440.00
2023-05-27T01:28:10.394Z,435.00
2023-05-27T01:29:10.362Z,437.00
2023-05-27T01:30:10.334Z,437.00
2023-05-27T01:31:10.371Z,435.00
2023-05-27T01:32:10.331Z,437.00
2023-05-27T01:33:10.312Z,438.00
2023-05-27T01:34:10.326Z,437.00
2023-05-27T01:35:10.311Z,437.00
2023-05-27T01:36:10.277Z,440.00
2023-05-27T01:37:10.261Z,441.00
2023-05-27T01:38:10.267Z,442.00
2023-05-27T01:39:10.223Z,443.00
2023-05-27T01:40:10.211Z,448.00
2023-05-27T01:41:10.192Z,446.00
2023-05-27T01:42:10.170Z,449.00
2023-05-27T01:43:10.176Z,447.00
2023-05-27T01:44:10.166Z,444.00
2023-05-27T01:45:10.136Z,442.00
2023-05-27T01:46:10.159Z,442.00
2023-05-27T01:47:10.187Z,440.00
2023-05-27T01:48:10.111Z,440.00
2023-05-27T01:49:10.082Z,442.00
2023-05-27T01:50:10.076Z,442.00
2023-05-27T01:51:10.050Z,441.00
2023-05-27T01:52:10.062Z,439.00
2023-05-27T01:53:10.055Z,439.00
2023-05-27T01:54:10.020Z,439.00
2023-05-27T01:55:10.033Z,439.00
2023-05-27T01:56:10.004Z,441.00
2023-05-27T01:57:09.963Z,440.00
2023-05-27T01:58:09.963Z,440.00
2023-05-27T01:59:10.031Z,441.00
2023-05-27T02:00:09.943Z,438.00
2023-05-27T02:01:09.957Z,438.00
2023-05-27T02:02:09.958Z,437.00
2023-05-27T02:03:09.976Z,437.00
2023-05-27T02:04:09.961Z,442.00
2023-05-27T02:05:09.881Z,443.00
2023-05-27T02:06:09.884Z,445.00
2023-05-27T02:07:09.905Z,446.00
2023-05-27T02:08:09.884Z,446.00
2023-05-27T02:09:09.814Z,444.00
2023-05-27T02:10:09.795Z,445.00
2023-05-27T02:11:09.805Z,444.00
2023-05-27T02:12:09.836Z,443.00
2023-05-27T02:13:09.760Z,441.00
2023-05-27T02:14:09.795Z,440.00
2023-05-27T02:15:09.770Z,443.00
2023-05-27T02:16:09.797Z,442.00
2023-05-27T02:17:09.725Z,440.00
2023-05-27T02:18:09.714Z,441.00
2023-05-27T02:19:09.675Z,441.00
2023-05-27T02:20:09.707Z,442.00
2023-05-27T02:21:09.689Z,444.00
2023-05-27T02:22:09.647Z,443.00
2023-05-27T02:23:09.640Z,434.00
2023-05-27T02:24:09.603Z,439.00
2023-05-27T02:25:09.620Z,440.00
2023-05-27T02:26:09.626Z,439.00
2023-05-27T02:27:09.600Z,438.00
2023-05-27T02:28:09.546Z,441.00
2023-05-27T02:29:09.562Z,443.00
2023-05-27T02:30:09.566Z,442.00
2023-05-27T02:31:09.586Z,442.00
2023-05-27T02:32:09.571Z,441.00
2023-05-27T02:33:09.585Z,443.00
2023-05-27T02:34:09.516Z,441.00
2023-05-27T02:35:09.580Z,440.00
2023-05-27T02:36:09.496Z,438.00
2023-05-27T02:37:09.459Z,440.00
2023-05-27T02:38:09.449Z,433.00
2023-05-27T02:39:09.417Z,436.00
2023-05-27T02:40:09.427Z,436.00
2023-05-27T02:41:09.413Z,438.00
2023-05-27T02:42:09.411Z,441.00
2023-05-27T02:43:09.353Z,436.00
2023-05-27T02:44:09.345Z,434.00
2023-05-27T02:45:09.343Z,439.00
2023-05-27T02:46:09.379Z,441.00
2023-05-27T02:47:09.306Z,441.00
2023-05-27T02:48:09.316Z,439.00
2023-05-27T02:49:09.319Z,436.00
2023-05-27T02:50:09.276Z,437.00
2023-05-27T02:51:09.264Z,442.00
2023-05-27T02:52:09.265Z,441.00
2023-05-27T02:53:09.232Z,442.00
2023-05-27T02:54:09.220Z,442.00
2023-05-27T02:55:09.212Z,441.00
2023-05-27T02:56:09.218Z,440.00
2023-05-27T02:57:09.168Z,441.00
2023-05-27T02:58:09.156Z,444.00
2023-05-27T02:59:09.131Z,445.00
2023-05-27T03:00:09.115Z,444.00
2023-05-27T03:01:09.128Z,442.00
2023-05-27T03:02:09.245Z,441.00
2023-05-27T03:03:09.370Z,437.00
2023-05-27T03:04:09.064Z,440.00
2023-05-27T03:05:09.054Z,442.00
2023-05-27T03:06:09.036Z,440.00
2023-05-27T03:07:09.027Z,443.00
2023-05-27T03:08:09.049Z,439.00
2023-05-27T03:09:09.078Z,439.00
2023-05-27T03:10:08.994Z,440.00
2023-05-27T03:11:09.024Z,442.00
2023-05-27T03:12:08.974Z,440.00
2023-05-27T03:13:08.986Z,440.00
2023-05-27T03:14:09.025Z,632.00
2023-05-27T03:15:08.970Z,509.00
2023-05-27T03:16:08.946Z,492.00
2023-05-27T03:17:08.928Z,483.00
2023-05-27T03:18:08.919Z,491.00
2023-05-27T03:19:09.007Z,456.00
2023-05-27T03:20:08.964Z,452.00
2023-05-27T03:21:08.887Z,445.00
2023-05-27T03:22:08.837Z,388.00
2023-05-27T03:23:08.838Z,361.00
2023-05-27T03:24:08.827Z,360.00
2023-05-27T03:25:08.977Z,370.00
2023-05-27T03:26:08.839Z,363.00
2023-05-27T03:27:08.816Z,355.00
2023-05-27T03:28:08.771Z,354.00
2023-05-27T03:29:08.745Z,357.00
2023-05-27T03:30:08.812Z,354.00
2023-05-27T03:31:08.731Z,354.00
2023-05-27T03:32:08.816Z,355.00
2023-05-27T03:33:08.798Z,359.00
2023-05-27T03:34:08.722Z,357.00
2023-05-27T03:35:08.680Z,357.00
2023-05-27T03:36:08.692Z,357.00
2023-05-27T03:37:08.682Z,356.00
2023-05-27T03:38:08.655Z,359.00
2023-05-27T03:39:08.620Z,360.00
2023-05-27T03:40:08.632Z,360.00
2023-05-27T03:41:09.385Z,360.00
2023-05-27T03:42:08.585Z,360.00
2023-05-27T03:43:08.546Z,361.00
2023-05-27T03:44:08.671Z,361.00
2023-05-27T03:45:08.532Z,361.00
2023-05-27T03:46:08.657Z,362.00
2023-05-27T03:47:08.550Z,359.00
2023-05-27T03:48:08.569Z,359.00
2023-05-27T03:49:08.481Z,359.00
2023-05-27T03:50:08.556Z,360.00
2023-05-27T03:51:08.484Z,360.00
2023-05-27T03:52:08.475Z,360.00
2023-05-27T03:53:08.429Z,359.00
2023-05-27T03:54:08.457Z,356.00
2023-05-27T03:55:08.445Z,354.00
2023-05-27T03:56:08.437Z,354.00
2023-05-27T03:57:08.417Z,356.00
2023-05-27T03:58:08.340Z,356.00
2023-05-27T03:59:08.325Z,353.00
2023-05-27T04:00:08.324Z,350.00
2023-05-27T04:01:08.323Z,352.00
2023-05-27T04:02:08.388Z,350.00
2023-05-27T04:03:08.467Z,351.00
2023-05-27T04:04:08.407Z,352.00
2023-05-27T04:05:08.236Z,354.00
2023-05-27T04:06:08.260Z,353.00
2023-05-27T04:07:08.236Z,352.00
2023-05-27T04:08:08.296Z,352.00
2023-05-27T04:09:08.248Z,349.00
2023-05-27T04:10:08.273Z,349.00
2023-05-27T04:11:08.205Z,348.00
2023-05-27T04:12:08.187Z,351.00
2023-05-27T04:13:08.175Z,346.00
2023-05-27T04:14:08.163Z,346.00
2023-05-27T04:15:08.182Z,346.00
2023-05-27T04:16:08.123Z,346.00
2023-05-27T04:17:08.111Z,348.00
2023-05-27T04:18:08.126Z,347.00
2023-05-27T04:19:08.092Z,348.00
2023-05-27T04:20:08.088Z,349.00
2023-05-27T04:21:08.020Z,348.00
2023-05-27T04:22:08.056Z,349.00
2023-05-27T04:23:08.026Z,348.00
2023-05-27T04:24:07.994Z,348.00
2023-05-27T04:25:08.028Z,350.00
2023-05-27T04:26:08.001Z,341.00
2023-05-27T04:27:07.967Z,343.00
2023-05-27T04:28:07.952Z,342.00
2023-05-27T04:29:07.938Z,344.00
2023-05-27T04:30:09.869Z,342.00
2023-05-27T04:31:07.923Z,345.00
2023-05-27T04:32:07.991Z,342.00
2023-05-27T04:33:07.953Z,340.00
2023-05-27T04:34:07.921Z,338.00
2023-05-27T04:35:07.865Z,337.00
2023-05-27T04:36:07.819Z,338.00
2023-05-27T04:37:07.822Z,339.00
2023-05-27T04:38:07.941Z,341.00
2023-05-27T04:39:07.873Z,343.00
2023-05-27T04:40:07.831Z,344.00
2023-05-27T04:41:07.850Z,343.00
2023-05-27T04:42:07.754Z,342.00
2023-05-27T04:43:07.745Z,342.00
2023-05-27T04:44:07.973Z,342.00
2023-05-27T04:45:07.769Z,341.00
2023-05-27T04:46:07.802Z,342.00
2023-05-27T04:47:07.732Z,343.00
2023-05-27T04:48:07.789Z,348.00
2023-05-27T04:49:07.648Z,346.00
2023-05-27T04:50:07.665Z,347.00
2023-05-27T04:51:07.629Z,347.00
2023-05-27T04:52:07.606Z,345.00
2023-05-27T04:53:07.824Z,345.00
2023-05-27T04:54:07.583Z,342.00
2023-05-27T04:55:07.591Z,341.00
2023-05-27T04:56:07.574Z,342.00
2023-05-27T04:57:07.576Z,342.00
2023-05-27T04:58:07.588Z,343.00
2023-05-27T04:59:07.542Z,341.00
2023-05-27T05:00:07.540Z,340.00
2023-05-27T05:01:07.558Z,338.00
2023-05-27T05:02:07.529Z,335.00
2023-05-27T05:03:07.653Z,338.00
2023-05-27T05:04:07.534Z,337.00
2023-05-27T05:05:07.484Z,339.00
2023-05-27T05:06:07.503Z,339.00
2023-05-27T05:07:07.503Z,338.00
2023-05-27T05:08:07.459Z,338.00
2023-05-27T05:09:07.423Z,340.00
2023-05-27T05:10:07.390Z,337.00
2023-05-27T05:11:07.352Z,339.00
2023-05-27T05:12:07.368Z,339.00
2023-05-27T05:13:07.377Z,342.00
2023-05-27T05:14:07.349Z,343.00
2023-05-27T05:15:07.320Z,342.00
2023-05-27T05:16:07.405Z,343.00
2023-05-27T05:17:07.283Z,340.00
2023-05-27T05:18:07.315Z,339.00
2023-05-27T05:19:07.272Z,339.00
2023-05-27T05:20:07.299Z,337.00
2023-05-27T05:21:07.259Z,336.00
2023-05-27T05:22:07.194Z,338.00
2023-05-27T05:23:07.201Z,337.00
2023-05-27T05:24:07.227Z,333.00
2023-05-27T05:25:07.172Z,331.00
2023-05-27T05:26:07.234Z,330.00
2023-05-27T05:27:07.498Z,331.00
2023-05-27T05:28:07.261Z,331.00
2023-05-27T05:29:07.113Z,332.00
2023-05-27T05:30:07.121Z,335.00
2023-05-27T05:31:11.367Z,333.00
2023-05-27T05:32:08.188Z,338.00
2023-05-27T05:33:11.251Z,335.00
2023-05-27T05:34:07.398Z,339.00
2023-05-27T05:35:07.030Z,334.00
2023-05-27T05:36:07.368Z,336.00
2023-05-27T05:37:07.849Z,339.00
2023-05-27T05:38:07.963Z,341.00
2023-05-27T05:39:07.037Z,339.00
2023-05-27T05:40:07.357Z,341.00
2023-05-27T05:41:07.312Z,338.00
2023-05-27T05:42:06.971Z,336.00
2023-05-27T05:43:06.927Z,337.00
2023-05-27T05:44:06.939Z,339.00
2023-05-27T05:45:10.890Z,363.00
2023-05-27T05:46:06.940Z,375.00
2023-05-27T05:47:07.168Z,374.00
2023-05-27T05:48:06.893Z,331.00
2023-05-27T05:49:06.919Z,333.00
2023-05-27T05:50:10.954Z,336.00
2023-05-27T05:51:06.819Z,345.00
2023-05-27T05:52:06.815Z,338.00
2023-05-27T05:53:06.775Z,335.00
2023-05-27T05:54:06.823Z,329.00
2023-05-27T05:55:09.312Z,331.00
2023-05-27T05:56:06.762Z,336.00
2023-05-27T05:57:06.751Z,336.00
2023-05-27T05:58:06.754Z,338.00
2023-05-27T05:59:06.908Z,338.00
2023-05-27T06:00:06.768Z,344.00
2023-05-27T06:01:06.695Z,340.00
2023-05-27T06:02:06.725Z,343.00
2023-05-27T06:03:06.785Z,341.00
2023-05-27T06:04:06.793Z,346.00
2023-05-27T06:05:06.649Z,335.00
2023-05-27T06:06:06.660Z,339.00
2023-05-27T06:07:06.610Z,339.00
2023-05-27T06:08:06.639Z,344.00
2023-05-27T06:09:06.616Z,340.00
2023-05-27T06:10:06.579Z,336.00
2023-05-27T06:11:06.576Z,336.00
2023-05-27T06:12:06.559Z,335.00
2023-05-27T06:13:06.536Z,332.00
2023-05-27T06:14:06.527Z,330.00
2023-05-27T06:15:06.538Z,330.00
2023-05-27T06:16:06.504Z,334.00
2023-05-27T06:17:06.472Z,332.00
2023-05-27T06:18:06.572Z,329.00
2023-05-27T06:19:06.482Z,331.00
2023-05-27T06:20:06.486Z,335.00
2023-05-27T06:21:06.440Z,335.00
2023-05-27T06:22:06.414Z,335.00
2023-05-27T06:23:06.382Z,335.00
2023-05-27T06:24:06.356Z,333.00
2023-05-27T06:25:06.365Z,336.00
2023-05-27T06:26:06.373Z,392.00
2023-05-27T06:27:06.343Z,382.00
2023-05-27T06:28:06.316Z,334.00
2023-05-27T06:29:06.300Z,364.00
2023-05-27T06:30:06.295Z,434.00
2023-05-27T06:31:06.323Z,346.00
2023-05-27T06:32:06.478Z,371.00
2023-05-27T06:33:06.320Z,347.00
2023-05-27T06:34:06.307Z,345.00
2023-05-27T06:35:06.226Z,342.00
2023-05-27T06:36:06.208Z,343.00
2023-05-27T06:37:06.233Z,341.00
2023-05-27T06:38:06.217Z,361.00
2023-05-27T06:39:06.182Z,336.00
2023-05-27T06:40:06.173Z,335.00
2023-05-27T06:41:06.144Z,335.00
2023-05-27T06:42:06.163Z,339.00
2023-05-27T06:43:06.098Z,392.00
2023-05-27T06:44:06.154Z,343.00
2023-05-27T06:45:06.087Z,341.00
2023-05-27T06:46:10.552Z,340.00
2023-05-27T06:47:06.102Z,337.00
2023-05-27T06:48:06.082Z,339.00
2023-05-27T06:49:06.043Z,338.00
2023-05-27T06:50:06.035Z,337.00
2023-05-27T06:51:06.010Z,330.00
2023-05-27T06:52:07.341Z,336.00
2023-05-27T06:53:05.967Z,336.00
2023-05-27T06:54:05.969Z,338.00
2023-05-27T06:55:05.982Z,335.00
2023-05-27T06:56:05.946Z,337.00
2023-05-27T06:57:05.966Z,344.00
2023-05-27T06:58:05.926Z,339.00
2023-05-27T06:59:05.915Z,334.00
2023-05-27T07:00:06.623Z,335.00
2023-05-27T07:01:05.958Z,352.00
2023-05-27T07:02:05.891Z,404.00
2023-05-27T07:03:05.941Z,379.00
2023-05-27T07:04:05.814Z,343.00
2023-05-27T07:05:05.841Z,341.00
2023-05-27T07:06:05.823Z,332.00
2023-05-27T07:07:05.839Z,333.00
2023-05-27T07:08:05.785Z,337.00
2023-05-27T07:09:06.508Z,338.00
2023-05-27T07:10:07.224Z,343.00
2023-05-27T07:11:05.761Z,339.00
2023-05-27T07:12:05.701Z,336.00
2023-05-27T07:13:05.679Z,333.00
2023-05-27T07:14:05.717Z,334.00
2023-05-27T07:15:05.685Z,332.00
2023-05-27T07:16:05.702Z,329.00
2023-05-27T07:17:05.643Z,336.00
2023-05-27T07:18:05.705Z,335.00
2023-05-27T07:19:05.674Z,333.00
2023-05-27T07:20:05.623Z,332.00
2023-05-27T07:21:05.594Z,329.00
2023-05-27T07:22:05.657Z,330.00
2023-05-27T07:23:05.561Z,331.00
2023-05-27T07:24:05.604Z,330.00
2023-05-27T07:25:05.578Z,333.00
2023-05-27T07:26:05.592Z,328.00
2023-05-27T07:27:05.511Z,328.00
2023-05-27T07:28:06.043Z,324.00
2023-05-27T07:29:05.812Z,329.00
2023-05-27T07:30:05.491Z,326.00
2023-05-27T07:31:05.593Z,324.00
2023-05-27T07:32:05.474Z,324.00
2023-05-27T07:33:05.486Z,323.00
2023-05-27T07:34:05.416Z,326.00
2023-05-27T07:35:05.485Z,337.00
2023-05-27T07:36:05.400Z,337.00
2023-05-27T07:37:05.423Z,335.00
2023-05-27T07:38:05.442Z,327.00
2023-05-27T07:39:05.396Z,330.00
2023-05-27T07:40:05.486Z,330.00
2023-05-27T07:41:05.432Z,329.00
2023-05-27T07:42:05.417Z,333.00
2023-05-27T07:43:05.307Z,327.00
2023-05-27T07:44:05.337Z,331.00
2023-05-27T07:45:05.305Z,332.00
2023-05-27T07:46:05.385Z,329.00
2023-05-27T07:47:05.362Z,330.00
2023-05-27T07:48:05.326Z,331.00
2023-05-27T07:49:05.245Z,330.00
2023-05-27T07:50:05.283Z,332.00
2023-05-27T07:51:05.176Z,337.00
2023-05-27T07:52:05.224Z,336.00
2023-05-27T07:54:05.170Z,336.00
2023-05-27T07:55:05.141Z,337.00
2023-05-27T07:56:05.187Z,333.00
2023-05-27T07:57:05.676Z,328.00
2023-05-27T07:58:05.145Z,329.00
2023-05-27T07:59:05.119Z,329.00
2023-05-27T08:00:05.062Z,333.00
2023-05-27T08:01:05.179Z,333.00
2023-05-27T08:02:05.119Z,331.00
2023-05-27T08:03:05.090Z,329.00
2023-05-27T08:04:16.184Z,330.00
2023-05-27T08:05:05.982Z,330.00
2023-05-27T08:06:05.006Z,328.00
2023-05-27T08:07:04.988Z,331.00
2023-05-27T08:08:04.999Z,331.00
2023-05-27T08:09:05.002Z,334.00
2023-05-27T08:10:04.931Z,338.00
2023-05-27T08:11:04.921Z,334.00
2023-05-27T08:12:04.961Z,331.00
2023-05-27T08:13:04.899Z,331.00
2023-05-27T08:14:04.953Z,331.00
2023-05-27T08:15:04.872Z,334.00
2023-05-27T08:16:04.867Z,332.00
2023-05-27T08:17:04.907Z,336.00
2023-05-27T08:18:04.987Z,336.00
2023-05-27T08:19:04.857Z,333.00
2023-05-27T08:20:04.817Z,328.00
2023-05-27T08:21:05.050Z,329.00
2023-05-27T08:22:05.824Z,327.00
2023-05-27T08:23:04.797Z,328.00
2023-05-27T08:24:04.772Z,335.00
2023-05-27T08:25:04.710Z,349.00
2023-05-27T08:26:04.812Z,345.00
2023-05-27T08:27:04.752Z,336.00
2023-05-27T08:28:04.721Z,335.00
2023-05-27T08:29:04.712Z,334.00
2023-05-27T08:30:04.679Z,330.00
2023-05-27T08:31:04.713Z,329.00
2023-05-27T08:32:04.672Z,333.00
2023-05-27T08:33:04.708Z,332.00
2023-05-27T08:34:04.617Z,335.00
2023-05-27T08:35:04.580Z,332.00
2023-05-27T08:36:04.589Z,337.00
2023-05-27T08:37:04.590Z,333.00
2023-05-27T08:38:04.568Z,327.00
2023-05-27T08:39:04.559Z,328.00
2023-05-27T08:40:04.561Z,327.00
2023-05-27T08:41:04.514Z,326.00
2023-05-27T08:42:04.498Z,329.00
2023-05-27T08:43:04.483Z,331.00
2023-05-27T08:45:04.506Z,330.00
2023-05-27T08:46:04.494Z,329.00
2023-05-27T08:47:04.462Z,326.00
2023-05-27T08:48:04.487Z,326.00
2023-05-27T08:49:04.421Z,325.00
2023-05-27T08:50:04.501Z,326.00
2023-05-27T08:51:04.425Z,330.00
2023-05-27T08:52:04.373Z,324.00
2023-05-27T08:53:04.352Z,327.00
2023-05-27T08:54:04.345Z,328.00
2023-05-27T08:55:04.339Z,335.00
2023-05-27T08:56:04.353Z,331.00
2023-05-27T08:57:04.404Z,332.00
2023-05-27T08:58:04.290Z,335.00
2023-05-27T08:59:04.278Z,336.00
2023-05-27T09:00:04.301Z,332.00
2023-05-27T09:01:04.279Z,333.00
2023-05-27T09:02:04.279Z,330.00
2023-05-27T09:03:04.295Z,327.00
2023-05-27T09:04:04.296Z,335.00
2023-05-27T09:05:04.247Z,325.00
2023-05-27T09:06:18.967Z,337.00
2023-05-27T09:07:04.316Z,336.00
2023-05-27T09:08:04.159Z,324.00
2023-05-27T09:09:04.146Z,331.00
2023-05-27T09:10:04.127Z,330.00
2023-05-27T09:11:04.163Z,331.00
2023-05-27T09:12:04.111Z,332.00
2023-05-27T09:13:04.107Z,331.00
2023-05-27T09:14:04.102Z,329.00
2023-05-27T09:15:04.108Z,327.00
2023-05-27T09:16:04.100Z,328.00
2023-05-27T09:17:04.046Z,327.00
2023-05-27T09:18:04.026Z,326.00
2023-05-27T09:19:04.011Z,329.00
2023-05-27T09:20:04.052Z,329.00
2023-05-27T09:21:03.997Z,328.00
2023-05-27T09:22:03.945Z,328.00
2023-05-27T09:23:03.960Z,347.00
2023-05-27T09:24:03.932Z,420.00
2023-05-27T09:25:03.945Z,461.00
2023-05-27T09:26:03.960Z,373.00
2023-05-27T09:27:03.898Z,400.00
2023-05-27T09:28:03.862Z,433.00
2023-05-27T09:29:03.871Z,481.00
2023-05-27T09:30:03.888Z,402.00
2023-05-27T09:31:03.931Z,454.00
2023-05-27T09:32:03.961Z,462.00
2023-05-27T09:33:04.101Z,465.00
2023-05-27T09:34:03.818Z,418.00
2023-05-27T09:35:03.839Z,463.00
2023-05-27T09:36:03.759Z,464.00
2023-05-27T09:37:03.761Z,474.00
2023-05-27T09:38:03.745Z,484.00
2023-05-27T09:39:03.743Z,454.00
2023-05-27T09:40:03.741Z,460.00
2023-05-27T09:41:03.748Z,423.00
2023-05-27T09:42:03.712Z,493.00
2023-05-27T09:43:03.697Z,460.00
2023-05-27T09:44:03.671Z,415.00
2023-05-27T09:45:03.678Z,409.00
2023-05-27T09:46:03.862Z,476.00
2023-05-27T09:47:03.630Z,478.00
2023-05-27T09:48:03.618Z,462.00
2023-05-27T09:49:03.584Z,494.00
2023-05-27T09:50:03.603Z,466.00
2023-05-27T09:51:03.693Z,460.00
2023-05-27T09:52:03.540Z,461.00
2023-05-27T09:53:11.534Z,455.00
2023-05-27T09:54:04.522Z,435.00
2023-05-27T09:55:03.519Z,449.00
2023-05-27T09:56:03.550Z,454.00
2023-05-27T09:57:03.511Z,362.00
2023-05-27T09:58:03.488Z,341.00
2023-05-27T09:59:03.505Z,336.00
2023-05-27T10:00:03.475Z,334.00
2023-05-27T10:01:03.497Z,332.00
2023-05-27T10:02:03.462Z,341.00
2023-05-27T10:03:03.576Z,355.00
2023-05-27T10:04:03.394Z,345.00
2023-05-27T10:05:03.393Z,355.00
2023-05-27T10:06:03.394Z,360.00
2023-05-27T10:07:03.373Z,338.00
2023-05-27T10:08:13.023Z,328.00
2023-05-27T10:09:04.330Z,341.00
2023-05-27T10:10:03.292Z,341.00
2023-05-27T10:11:03.348Z,339.00
2023-05-27T10:12:03.291Z,338.00
2023-05-27T10:13:03.285Z,345.00
2023-05-27T10:14:03.310Z,332.00
2023-05-27T10:15:03.230Z,336.00
2023-05-27T10:16:03.218Z,343.00
2023-05-27T10:17:03.266Z,340.00
2023-05-27T10:18:03.414Z,339.00
2023-05-27T10:19:03.163Z,337.00
2023-05-27T10:20:03.251Z,344.00
2023-05-27T10:21:03.200Z,342.00
2023-05-27T10:22:03.127Z,338.00
2023-05-27T10:23:03.142Z,336.00
2023-05-27T10:24:03.128Z,340.00
2023-05-27T10:25:03.090Z,333.00
2023-05-27T10:26:03.133Z,336.00
2023-05-27T10:27:03.090Z,338.00
2023-05-27T10:28:03.063Z,334.00
2023-05-27T10:29:03.049Z,329.00
2023-05-27T10:30:03.051Z,333.00
2023-05-27T10:31:03.119Z,335.00
2023-05-27T10:32:03.106Z,334.00
2023-05-27T10:33:03.042Z,333.00
2023-05-27T10:34:02.979Z,333.00
2023-05-27T10:35:02.973Z,336.00
2023-05-27T10:36:02.960Z,338.00
2023-05-27T10:37:02.968Z,349.00
2023-05-27T10:38:02.989Z,342.00
2023-05-27T10:39:02.909Z,344.00
2023-05-27T10:40:02.978Z,339.00
2023-05-27T10:41:03.501Z,336.00
2023-05-27T10:42:14.873Z,338.00
2023-05-27T10:43:03.886Z,339.00
2023-05-27T10:44:02.857Z,342.00
2023-05-27T10:45:02.837Z,341.00
2023-05-27T10:46:02.966Z,338.00
2023-05-27T10:47:02.999Z,337.00
2023-05-27T10:48:02.875Z,339.00
2023-05-27T10:49:02.795Z,335.00
2023-05-27T10:50:02.775Z,344.00
2023-05-27T10:51:02.828Z,346.00
2023-05-27T10:52:02.821Z,343.00
2023-05-27T10:53:02.737Z,339.00
2023-05-27T10:55:02.737Z,355.00
2023-05-27T10:56:02.711Z,372.00
2023-05-27T10:57:02.703Z,431.00
2023-05-27T10:58:02.699Z,411.00
2023-05-27T10:59:02.648Z,407.00
2023-05-27T11:00:05.318Z,365.00
2023-05-27T11:01:02.656Z,369.00
2023-05-27T11:02:02.640Z,347.00
2023-05-27T11:03:02.739Z,340.00
2023-05-27T11:04:02.623Z,331.00
2023-05-27T11:05:02.574Z,329.00
2023-05-27T11:06:02.569Z,330.00
2023-05-27T11:07:04.660Z,331.00
2023-05-27T11:08:02.550Z,329.00
2023-05-27T11:09:02.506Z,335.00
2023-05-27T11:10:02.511Z,348.00
2023-05-27T11:11:02.603Z,345.00
2023-05-27T11:12:02.504Z,333.00
2023-05-27T11:13:02.492Z,363.00
2023-05-27T11:14:02.440Z,401.00
2023-05-27T11:15:02.433Z,352.00
2023-05-27T11:16:02.791Z,355.00
2023-05-27T11:17:02.501Z,348.00
2023-05-27T11:18:02.478Z,342.00
2023-05-27T11:19:02.439Z,390.00
2023-05-27T11:20:09.350Z,338.00
2023-05-27T11:21:02.416Z,332.00
2023-05-27T11:22:02.381Z,340.00
2023-05-27T11:23:02.354Z,338.00
2023-05-27T11:24:02.313Z,337.00
2023-05-27T11:25:02.345Z,338.00
2023-05-27T11:26:02.292Z,340.00
2023-05-27T11:27:02.304Z,336.00
2023-05-27T11:28:02.301Z,340.00
2023-05-27T11:29:02.243Z,341.00
2023-05-27T11:30:02.279Z,337.00
2023-05-27T11:31:02.319Z,335.00
2023-05-27T11:32:02.281Z,342.00
2023-05-27T11:33:02.244Z,368.00
2023-05-27T11:34:02.177Z,345.00
2023-05-27T11:35:02.192Z,343.00
2023-05-27T11:36:02.176Z,342.00
2023-05-27T11:37:02.185Z,336.00
2023-05-27T11:38:02.123Z,340.00
2023-05-27T11:39:02.227Z,340.00
2023-05-27T11:40:02.123Z,339.00
2023-05-27T11:41:02.079Z,334.00
2023-05-27T11:42:02.073Z,329.00
2023-05-27T11:43:02.094Z,333.00
2023-05-27T11:44:02.102Z,332.00
2023-05-27T11:45:02.028Z,333.00
2023-05-27T11:46:02.053Z,355.00
2023-05-27T11:47:02.007Z,406.00
2023-05-27T11:48:02.057Z,415.00
2023-05-27T11:49:02.024Z,452.00
2023-05-27T11:50:01.961Z,393.00
2023-05-27T11:51:01.988Z,347.00
2023-05-27T11:52:01.928Z,392.00
2023-05-27T11:53:01.945Z,379.00
2023-05-27T11:54:02.097Z,416.00
2023-05-27T11:55:01.937Z,403.00
2023-05-27T11:56:01.901Z,392.00
2023-05-27T11:57:01.877Z,343.00
2023-05-27T11:58:01.882Z,346.00
2023-05-27T11:59:01.910Z,349.00
2023-05-27T12:00:01.853Z,335.00
2023-05-27T12:01:01.862Z,342.00
2023-05-27T12:02:01.894Z,338.00
2023-05-27T12:03:01.953Z,338.00
2023-05-27T12:04:01.794Z,352.00
2023-05-27T12:05:01.876Z,349.00
2023-05-27T12:06:01.826Z,399.00
2023-05-27T12:07:05.870Z,344.00
2023-05-27T12:08:02.739Z,341.00
2023-05-27T12:09:01.729Z,336.00
2023-05-27T12:10:01.711Z,365.00
2023-05-27T12:11:01.745Z,454.00
2023-05-27T12:12:01.677Z,385.00
2023-05-27T12:13:01.688Z,355.00
2023-05-27T12:14:01.758Z,373.00
2023-05-27T12:15:01.716Z,379.00
2023-05-27T12:16:01.707Z,346.00
2023-05-27T12:17:01.696Z,339.00
2023-05-27T12:18:01.711Z,344.00
2023-05-27T12:19:01.675Z,349.00
2023-05-27T12:20:01.745Z,358.00
2023-05-27T12:21:01.619Z,362.00
2023-05-27T12:22:01.600Z,356.00
2023-05-27T12:23:01.630Z,445.00
2023-05-27T12:24:01.584Z,345.00
2023-05-27T12:25:01.560Z,346.00
2023-05-27T12:26:01.555Z,343.00
2023-05-27T12:27:01.502Z,406.00
2023-05-27T12:28:01.565Z,329.00
2023-05-27T12:29:01.500Z,334.00
2023-05-27T12:30:01.556Z,344.00
2023-05-27T12:31:01.589Z,409.00